createdAt,value
2022-12-11T00:01:41.655Z,27.17
2022-12-11T00:04:11.278Z,25.90
2022-12-11T00:06:43.786Z,23.13
2022-12-11T00:09:12.500Z,21.30
2022-12-11T00:11:40.466Z,19.10
2022-12-11T00:14:08.659Z,25.10
2022-12-11T00:16:36.856Z,21.00
2022-12-11T00:19:05.290Z,23.27
2022-12-11T00:24:33.448Z,25.33
2022-12-11T00:27:01.996Z,19.13
2022-12-11T00:29:30.102Z,20.27
2022-12-11T00:31:58.338Z,23.73
2022-12-11T00:34:26.716Z,22.10
2022-12-11T00:36:59.235Z,20.17
2022-12-11T00:39:27.311Z,23.50
2022-12-11T00:42:04.118Z,21.33
2022-12-11T00:44:32.126Z,20.80
2022-12-11T00:47:06.393Z,26.67
2022-12-11T00:49:34.342Z,21.40
2022-12-11T00:52:03.683Z,18.30
2022-12-11T00:54:31.823Z,20.63
2022-12-11T00:57:03.982Z,23.07
2022-12-11T00:59:31.996Z,20.47
2022-12-11T01:02:00.441Z,16.03
2022-12-11T01:04:28.785Z,18.43
2022-12-11T01:06:57.081Z,21.20
2022-12-11T01:09:52.329Z,22.47
2022-12-11T01:12:20.693Z,18.80
2022-12-11T01:14:54.686Z,23.57
2022-12-11T01:17:22.818Z,23.40
2022-12-11T01:19:57.079Z,21.63
2022-12-11T01:22:25.124Z,21.73
2022-12-11T01:25:02.458Z,19.37
2022-12-11T01:27:30.493Z,23.57
2022-12-11T01:30:00.686Z,20.63
2022-12-11T01:32:29.046Z,20.97
2022-12-11T01:35:03.105Z,20.23
2022-12-11T01:37:31.219Z,19.70
2022-12-11T01:40:10.419Z,19.77
2022-12-11T01:42:40.404Z,17.67
2022-12-11T01:45:29.196Z,19.53
2022-12-11T01:48:02.962Z,19.83
2022-12-11T01:50:35.612Z,21.90
2022-12-11T01:53:05.695Z,22.10
2022-12-11T01:55:36.556Z,16.47
2022-12-11T01:58:05.343Z,21.23
2022-12-11T02:00:34.460Z,17.60
2022-12-11T02:03:02.540Z,22.27
2022-12-11T02:05:34.218Z,19.60
2022-12-11T02:08:03.860Z,23.67
2022-12-11T02:11:01.434Z,16.63
2022-12-11T02:13:37.889Z,22.87
2022-12-11T02:16:13.176Z,21.23
2022-12-11T02:18:48.816Z,14.83
2022-12-11T02:21:25.509Z,17.80
2022-12-11T02:24:22.936Z,21.67
2022-12-11T02:27:30.079Z,20.77
2022-12-11T02:30:04.718Z,18.47
2022-12-11T02:32:45.885Z,22.50
2022-12-11T02:35:19.905Z,20.07
2022-12-11T02:37:50.903Z,18.40
2022-12-11T02:40:25.895Z,17.90
2022-12-11T02:42:55.288Z,19.20
2022-12-11T02:45:25.420Z,17.60
2022-12-11T02:47:54.099Z,15.33
2022-12-11T02:50:23.463Z,20.80
2022-12-11T02:52:56.384Z,15.63
2022-12-11T02:55:27.299Z,18.90
2022-12-11T02:58:01.332Z,20.83
2022-12-11T03:00:31.903Z,19.63
2022-12-11T03:03:00.107Z,22.40
2022-12-11T03:05:28.539Z,16.67
2022-12-11T03:07:57.170Z,18.63
2022-12-11T03:10:25.445Z,18.83
2022-12-11T03:12:56.692Z,17.70
2022-12-11T03:15:30.892Z,19.10
2022-12-11T03:18:06.503Z,16.87
2022-12-11T03:20:40.043Z,18.50
2022-12-11T03:23:16.874Z,17.93
2022-12-11T03:25:50.929Z,15.00
2022-12-11T03:28:22.470Z,17.57
2022-12-11T03:30:53.949Z,18.23
2022-12-11T03:33:27.951Z,20.40
2022-12-11T03:36:00.425Z,18.77
2022-12-11T03:38:33.197Z,20.10
2022-12-11T03:41:04.374Z,18.47
2022-12-11T03:43:33.619Z,17.67
2022-12-11T03:46:02.600Z,20.93
2022-12-11T03:48:36.511Z,17.63
2022-12-11T03:51:07.313Z,19.63
2022-12-11T03:53:37.300Z,19.17
2022-12-11T03:56:07.596Z,22.67
2022-12-11T03:58:35.748Z,15.97
2022-12-11T04:01:03.885Z,18.73
2022-12-11T04:03:33.244Z,20.97
2022-12-11T04:06:01.271Z,18.23
2022-12-11T04:08:29.409Z,19.87
2022-12-11T04:11:11.558Z,17.93
2022-12-11T04:13:40.290Z,20.97
2022-12-11T04:16:08.169Z,18.53
2022-12-11T04:18:54.260Z,17.10
2022-12-11T04:21:39.938Z,18.53
2022-12-11T04:24:17.398Z,16.60
2022-12-11T04:26:46.769Z,19.73
2022-12-11T04:29:15.258Z,22.10
2022-12-11T04:31:43.293Z,20.00
2022-12-11T04:34:13.023Z,18.50
2022-12-11T04:36:40.985Z,19.93
2022-12-11T04:39:09.124Z,23.47
2022-12-11T04:41:38.841Z,17.30
2022-12-11T04:44:06.889Z,19.37
2022-12-11T04:46:35.736Z,22.37
2022-12-11T04:49:03.739Z,20.17
2022-12-11T04:51:33.034Z,16.43
2022-12-11T04:54:02.822Z,19.07
2022-12-11T04:56:30.840Z,19.80
2022-12-11T04:59:02.201Z,18.27
2022-12-11T05:01:30.287Z,20.33
2022-12-11T05:04:00.175Z,19.20
2022-12-11T05:06:28.138Z,17.17
2022-12-11T05:08:57.935Z,18.37
2022-12-11T05:11:25.950Z,18.17
2022-12-11T05:13:53.930Z,17.50
2022-12-11T05:16:22.050Z,18.30
2022-12-11T05:18:50.052Z,20.43
2022-12-11T05:21:18.019Z,20.17
2022-12-11T05:23:46.098Z,17.23
2022-12-11T05:26:19.169Z,19.33
2022-12-11T05:28:51.991Z,18.07
2022-12-11T05:31:21.997Z,16.40
2022-12-11T05:33:51.227Z,21.10
2022-12-11T05:36:22.178Z,23.10
2022-12-11T05:38:50.610Z,19.23
2022-12-11T05:41:22.557Z,23.70
2022-12-11T05:43:50.595Z,23.00
2022-12-11T05:46:20.721Z,22.43
2022-12-11T05:48:51.376Z,19.03
2022-12-11T05:51:20.499Z,24.53
2022-12-11T05:53:50.315Z,18.20
2022-12-11T05:56:21.996Z,23.17
2022-12-11T05:58:50.968Z,20.10
2022-12-11T06:01:21.965Z,22.93
2022-12-11T06:03:50.127Z,18.90
2022-12-11T06:06:18.431Z,20.00
2022-12-11T06:08:46.851Z,18.17
2022-12-11T06:11:18.365Z,24.97
2022-12-11T06:13:50.564Z,22.63
2022-12-11T06:16:18.719Z,18.73
2022-12-11T06:18:46.855Z,20.70
2022-12-11T06:21:19.423Z,21.97
2022-12-11T06:23:49.252Z,23.63
2022-12-11T06:26:18.961Z,24.60
2022-12-11T06:28:47.282Z,24.60
2022-12-11T06:31:19.267Z,21.23
2022-12-11T06:33:47.803Z,22.33
2022-12-11T06:36:17.675Z,20.40
2022-12-11T06:38:46.333Z,20.87
2022-12-11T06:41:14.684Z,20.37
2022-12-11T06:43:44.210Z,22.93
2022-12-11T06:46:13.788Z,26.23
2022-12-11T06:48:44.105Z,18.33
2022-12-11T06:51:13.969Z,20.77
2022-12-11T06:53:42.366Z,19.40
2022-12-11T06:56:12.392Z,24.83
2022-12-11T06:58:40.919Z,21.67
2022-12-11T07:01:17.039Z,24.57
2022-12-11T07:03:46.983Z,20.97
2022-12-11T07:06:15.773Z,21.40
2022-12-11T07:08:44.060Z,21.57
2022-12-11T07:11:14.563Z,22.83
2022-12-11T07:13:43.029Z,19.27
2022-12-11T07:16:13.054Z,23.80
2022-12-11T07:18:42.376Z,19.93
2022-12-11T07:21:13.834Z,20.73
2022-12-11T07:23:42.111Z,26.33
2022-12-11T07:26:12.573Z,24.90
2022-12-11T07:28:41.601Z,26.07
2022-12-11T07:31:10.139Z,23.07
2022-12-11T07:33:38.289Z,23.37
2022-12-11T07:36:09.177Z,24.53
2022-12-11T07:38:38.719Z,20.90
2022-12-11T07:41:08.403Z,23.17
2022-12-11T07:43:37.117Z,24.80
2022-12-11T07:46:06.292Z,23.30
2022-12-11T07:48:36.901Z,24.43
2022-12-11T07:51:12.002Z,22.67
2022-12-11T07:53:41.514Z,23.93
2022-12-11T07:56:09.867Z,20.40
2022-12-11T07:58:39.068Z,25.00
2022-12-11T08:01:07.459Z,24.47
2022-12-11T08:03:37.259Z,20.77
2022-12-11T08:06:05.792Z,24.03
2022-12-11T08:08:33.919Z,23.67
2022-12-11T08:11:03.637Z,22.40
2022-12-11T08:13:32.162Z,26.67
2022-12-11T08:16:00.153Z,26.33
2022-12-11T08:18:28.263Z,21.07
2022-12-11T08:20:56.251Z,21.93
2022-12-11T08:23:24.243Z,27.40
2022-12-11T08:25:52.204Z,24.83
2022-12-11T08:28:22.076Z,26.67
2022-12-11T08:30:50.061Z,26.73
2022-12-11T08:33:17.968Z,23.13
2022-12-11T08:35:46.627Z,21.93
2022-12-11T08:38:15.320Z,27.17
2022-12-11T08:40:43.453Z,23.13
2022-12-11T08:43:11.498Z,27.37
2022-12-11T08:45:40.893Z,19.73
2022-12-11T08:48:08.899Z,24.53
2022-12-11T08:50:38.118Z,23.63
2022-12-11T08:53:06.181Z,26.87
2022-12-11T08:55:40.248Z,19.80
2022-12-11T08:58:08.389Z,26.87
2022-12-11T09:00:41.095Z,26.10
2022-12-11T09:03:12.960Z,27.40
2022-12-11T09:05:41.134Z,22.83
2022-12-11T09:08:09.146Z,26.23
2022-12-11T09:10:37.399Z,26.17
2022-12-11T09:13:05.554Z,26.50
2022-12-11T09:15:33.938Z,20.80
2022-12-11T09:18:02.429Z,26.83
2022-12-11T09:20:31.716Z,31.07
2022-12-11T09:22:59.704Z,30.37
2022-12-11T09:25:28.122Z,26.47
2022-12-11T09:27:56.044Z,22.67
2022-12-11T09:30:24.038Z,25.97
2022-12-11T09:32:53.117Z,22.80
2022-12-11T09:35:21.114Z,27.33
2022-12-11T09:37:51.645Z,28.30
2022-12-11T09:40:19.807Z,26.87
2022-12-11T09:42:54.108Z,25.97
2022-12-11T09:45:22.618Z,31.70
2022-12-11T09:47:53.146Z,26.23
2022-12-11T09:50:25.140Z,29.63
2022-12-11T09:53:06.698Z,26.10
2022-12-11T09:55:44.898Z,25.67
2022-12-11T09:58:21.883Z,25.30
2022-12-11T10:00:55.518Z,24.57
2022-12-11T10:03:50.000Z,25.37
2022-12-11T10:06:25.226Z,27.90
2022-12-11T10:09:05.500Z,21.73
2022-12-11T10:11:56.333Z,22.17
2022-12-11T10:14:32.889Z,25.10
2022-12-11T10:17:11.153Z,27.63
2022-12-11T10:19:42.251Z,19.57
2022-12-11T10:22:18.628Z,30.60
2022-12-11T10:25:12.668Z,29.90
2022-12-11T10:27:41.808Z,26.07
2022-12-11T10:30:17.278Z,29.27
2022-12-11T10:32:59.091Z,30.37
2022-12-11T10:35:40.790Z,28.30
2022-12-11T10:38:24.873Z,25.83
2022-12-11T10:40:58.308Z,26.73
2022-12-11T10:43:36.997Z,28.33
2022-12-11T10:46:06.512Z,29.33
2022-12-11T10:48:34.887Z,27.07
2022-12-11T10:51:06.218Z,27.23
2022-12-11T10:53:35.300Z,32.10
2022-12-11T10:56:04.745Z,29.10
2022-12-11T10:58:35.220Z,27.83
2022-12-11T11:01:09.505Z,26.80
2022-12-11T11:03:55.635Z,25.73
2022-12-11T11:13:19.006Z,23.90
2022-12-11T11:15:47.204Z,23.60
2022-12-11T11:18:25.387Z,27.23
2022-12-11T11:20:53.828Z,21.80
2022-12-11T11:23:22.979Z,22.20
2022-12-11T11:26:03.727Z,22.77
2022-12-11T11:28:49.882Z,23.37
2022-12-11T11:31:34.827Z,24.63
2022-12-11T11:34:07.891Z,25.17
2022-12-11T11:36:37.754Z,29.00
2022-12-11T11:39:18.763Z,21.33
2022-12-11T11:41:53.114Z,20.40
2022-12-11T11:44:30.004Z,21.20
2022-12-11T11:47:07.233Z,23.03
2022-12-11T11:49:49.530Z,23.03
2022-12-11T11:52:30.019Z,20.80
2022-12-11T11:55:11.883Z,26.63
2022-12-11T11:57:44.652Z,26.00
2022-12-11T12:00:21.433Z,27.57
2022-12-11T12:02:51.168Z,23.13
2022-12-11T12:05:28.312Z,27.23
2022-12-11T12:08:20.896Z,29.53
2022-12-11T12:10:59.427Z,30.57
2022-12-11T12:13:55.587Z,23.93
2022-12-11T12:16:53.439Z,23.43
2022-12-11T12:19:42.108Z,27.73
2022-12-11T12:22:32.060Z,25.47
2022-12-11T12:25:11.683Z,28.90
2022-12-11T12:27:54.520Z,32.37
2022-12-11T12:30:23.907Z,26.43
2022-12-11T12:33:12.172Z,25.50
2022-12-11T12:35:48.883Z,27.33
2022-12-11T12:38:27.807Z,21.47
2022-12-11T12:41:07.471Z,19.70
2022-12-11T12:43:53.944Z,26.03
2022-12-11T12:46:35.288Z,24.50
2022-12-11T12:49:08.687Z,19.70
2022-12-11T12:51:38.043Z,17.53
2022-12-11T12:54:12.310Z,20.53
2022-12-11T12:56:43.699Z,18.67
2022-12-11T12:59:21.195Z,14.17
2022-12-11T13:01:55.191Z,13.50
2022-12-11T13:07:29.828Z,14.73
2022-12-11T13:10:01.755Z,15.70
2022-12-11T13:12:41.490Z,13.73
2022-12-11T13:15:25.331Z,18.10
2022-12-11T13:17:53.849Z,15.80
2022-12-11T13:20:24.987Z,14.43
2022-12-11T13:23:09.926Z,15.20
2022-12-11T13:25:50.326Z,16.90
2022-12-11T13:28:27.491Z,16.13
2022-12-11T13:31:01.314Z,14.17
2022-12-11T13:33:30.475Z,17.03
2022-12-11T13:36:28.482Z,20.87
2022-12-11T13:39:00.947Z,19.20
2022-12-11T13:41:30.045Z,18.80
2022-12-11T13:43:59.533Z,17.70
2022-12-11T13:46:30.992Z,17.97
2022-12-11T13:49:02.236Z,16.70
2022-12-11T13:51:35.014Z,12.50
2022-12-11T13:54:17.003Z,12.97
2022-12-11T13:56:56.083Z,13.47
2022-12-11T13:59:29.935Z,17.30
2022-12-11T14:02:02.204Z,12.53
2022-12-11T14:04:31.331Z,12.30
2022-12-11T14:07:02.460Z,11.80
2022-12-11T14:09:30.822Z,16.70
2022-12-11T14:11:59.318Z,11.53
2022-12-11T14:14:37.045Z,18.37
2022-12-11T14:17:05.426Z,14.63
2022-12-11T14:19:34.142Z,11.17
2022-12-11T14:22:05.790Z,11.43
2022-12-11T14:24:33.832Z,9.17
2022-12-11T14:27:02.035Z,16.77
2022-12-11T14:29:32.275Z,8.83
2022-12-11T14:32:03.491Z,10.50
2022-12-11T14:34:36.019Z,12.43
2022-12-11T14:37:08.342Z,13.37
2022-12-11T14:39:40.127Z,9.87
2022-12-11T14:42:14.452Z,10.87
2022-12-11T14:44:49.381Z,13.13
2022-12-11T14:47:23.437Z,12.20
2022-12-11T14:49:57.820Z,13.57
2022-12-11T14:52:32.685Z,13.00
2022-12-11T14:55:06.892Z,11.50
2022-12-11T14:57:37.100Z,13.70
2022-12-11T15:00:07.278Z,15.90
2022-12-11T15:02:37.761Z,14.13
2022-12-11T15:05:18.456Z,17.00
2022-12-11T15:07:59.044Z,13.87
2022-12-11T15:10:36.047Z,10.50
2022-12-11T15:13:05.619Z,12.10
2022-12-11T15:15:39.450Z,12.20
2022-12-11T15:18:22.054Z,15.50
2022-12-11T15:20:53.689Z,11.13
2022-12-11T15:23:23.537Z,15.13
2022-12-11T15:25:53.658Z,12.17
2022-12-11T15:28:29.164Z,12.57
2022-12-11T15:30:59.345Z,12.07
2022-12-11T15:33:32.653Z,11.53
2022-12-11T15:36:04.905Z,11.93
2022-12-11T15:38:37.401Z,12.23
2022-12-11T15:41:06.578Z,11.63
2022-12-11T15:43:41.890Z,12.47
2022-12-11T15:46:10.339Z,12.63
2022-12-11T15:48:38.292Z,13.50
2022-12-11T15:51:06.782Z,13.60
2022-12-11T15:53:36.190Z,13.23
2022-12-11T15:56:04.182Z,14.23
2022-12-11T15:58:32.213Z,13.77
2022-12-11T16:01:00.851Z,13.30
2022-12-11T16:03:28.869Z,11.70
2022-12-11T16:05:56.875Z,12.13
2022-12-11T16:08:25.591Z,15.10
2022-12-11T16:10:56.162Z,13.77
2022-12-11T16:13:25.100Z,12.00
2022-12-11T16:15:54.311Z,12.27
2022-12-11T16:18:24.160Z,11.70
2022-12-11T16:20:53.332Z,13.23
2022-12-11T16:23:21.896Z,15.40
2022-12-11T16:25:50.216Z,13.33
2022-12-11T16:28:22.262Z,14.00
2022-12-11T16:30:50.517Z,13.23
2022-12-11T16:33:18.822Z,13.30
2022-12-11T16:35:47.335Z,11.87
2022-12-11T16:38:15.362Z,12.20
2022-12-11T16:40:43.418Z,13.13
2022-12-11T16:43:11.483Z,14.70
2022-12-11T16:45:41.944Z,13.27
2022-12-11T16:48:10.311Z,11.33
2022-12-11T16:50:42.121Z,10.93
2022-12-11T16:53:13.373Z,14.10
2022-12-11T16:55:42.449Z,15.57
2022-12-11T16:58:11.225Z,13.87
2022-12-11T17:00:41.208Z,16.87
2022-12-11T17:03:10.505Z,14.83
2022-12-11T17:05:40.897Z,16.23
2022-12-11T17:08:10.038Z,16.90
2022-12-11T17:10:41.891Z,13.13
2022-12-11T17:13:09.933Z,14.63
2022-12-11T17:15:43.127Z,12.67
2022-12-11T17:18:11.701Z,12.73
2022-12-11T17:20:41.722Z,12.47
2022-12-11T17:23:10.724Z,9.70
2022-12-11T17:25:40.987Z,13.57
2022-12-11T17:28:09.387Z,11.33
2022-12-11T17:30:42.903Z,12.53
2022-12-11T17:33:11.696Z,11.93
2022-12-11T17:35:40.398Z,10.63
2022-12-11T17:38:08.514Z,13.40
2022-12-11T17:40:40.110Z,12.53
2022-12-11T17:43:09.715Z,14.17
2022-12-11T17:45:43.181Z,9.70
2022-12-11T17:48:11.877Z,14.10
2022-12-11T17:50:42.578Z,12.60
2022-12-11T17:53:10.712Z,14.33
2022-12-11T17:55:43.013Z,11.93
2022-12-11T17:58:11.502Z,13.10
2022-12-11T18:00:39.979Z,15.70
2022-12-11T18:03:10.940Z,15.30
2022-12-11T18:05:43.200Z,18.33
2022-12-11T18:08:14.072Z,25.60
2022-12-11T18:10:42.660Z,20.20
2022-12-11T18:13:10.950Z,24.00
2022-12-11T18:15:39.643Z,20.97
2022-12-11T18:18:09.843Z,18.37
2022-12-11T18:20:39.253Z,21.43
2022-12-11T18:23:07.758Z,23.30
2022-12-11T18:25:36.283Z,22.33
2022-12-11T18:28:05.518Z,30.30
2022-12-11T18:30:33.681Z,26.43
2022-12-11T18:33:01.952Z,19.27
2022-12-11T18:35:32.629Z,19.93
2022-12-11T18:38:01.046Z,23.40
2022-12-11T18:40:29.738Z,18.47
2022-12-11T18:42:58.980Z,21.40
2022-12-11T18:45:27.209Z,14.97
2022-12-11T18:47:56.493Z,18.67
2022-12-11T18:50:25.705Z,20.13
2022-12-11T18:52:56.993Z,18.40
2022-12-11T18:55:25.661Z,19.37
2022-12-11T18:57:54.314Z,16.40
2022-12-11T19:00:23.307Z,17.83
2022-12-11T19:02:52.179Z,15.43
2022-12-11T19:05:20.746Z,18.97
2022-12-11T19:07:49.512Z,14.60
2022-12-11T19:10:19.115Z,17.93
2022-12-11T19:12:47.373Z,14.37
2022-12-11T19:15:19.622Z,15.10
2022-12-11T19:17:51.607Z,15.43
2022-12-11T19:23:09.583Z,15.50
2022-12-11T19:25:44.416Z,16.60
2022-12-11T19:28:14.332Z,19.10
2022-12-11T19:30:44.274Z,13.70
2022-12-11T19:33:13.667Z,16.80
2022-12-11T19:35:42.235Z,16.63
2022-12-11T19:38:10.823Z,17.70
2022-12-11T19:40:44.393Z,18.47
2022-12-11T19:43:12.433Z,17.63
2022-12-11T19:45:42.608Z,18.03
2022-12-11T19:48:11.087Z,18.83
2022-12-11T19:50:45.747Z,18.00
2022-12-11T19:53:16.663Z,28.57
2022-12-11T19:55:54.490Z,31.23
2022-12-11T19:58:29.779Z,33.30
2022-12-11T20:00:58.039Z,26.40
2022-12-11T20:03:41.369Z,29.33
2022-12-11T20:06:11.401Z,31.33
2022-12-11T20:08:46.907Z,24.07
2022-12-11T20:11:19.859Z,20.70
2022-12-11T20:13:58.064Z,24.30
2022-12-11T20:16:53.335Z,25.27
2022-12-11T20:19:17.118Z,19.43
2022-12-11T20:21:45.376Z,18.93
2022-12-11T20:24:21.043Z,22.77
2022-12-11T20:26:50.576Z,15.40
2022-12-11T20:29:25.163Z,21.17
2022-12-11T20:32:04.120Z,20.03
2022-12-11T20:34:32.534Z,20.10
2022-12-11T20:37:07.806Z,17.67
2022-12-11T20:39:35.894Z,21.70
2022-12-11T20:42:10.508Z,26.33
2022-12-11T20:44:40.704Z,23.37
2022-12-11T20:47:10.970Z,20.90
2022-12-11T20:49:39.128Z,24.13
2022-12-11T20:52:13.924Z,23.53
2022-12-11T20:54:42.165Z,20.50
2022-12-11T20:57:16.313Z,23.40
2022-12-11T20:59:55.710Z,22.83
2022-12-11T21:02:24.181Z,23.57
2022-12-11T21:04:58.899Z,23.57
2022-12-11T21:07:26.973Z,29.77
2022-12-11T21:09:59.500Z,23.37
2022-12-11T21:12:31.731Z,21.73
2022-12-11T21:15:03.400Z,22.50
2022-12-11T21:17:31.608Z,28.97
2022-12-11T21:20:03.915Z,33.60
2022-12-11T21:22:32.077Z,29.30
2022-12-11T21:25:06.712Z,30.10
2022-12-11T21:30:25.770Z,39.17
2022-12-11T21:32:53.891Z,29.50
2022-12-11T21:35:26.981Z,43.57
2022-12-11T21:37:55.108Z,34.13
2022-12-11T21:40:28.169Z,40.00
2022-12-11T21:42:58.606Z,37.80
2022-12-11T21:48:18.864Z,36.87
2022-12-11T21:50:52.842Z,39.33
2022-12-11T21:53:21.551Z,34.30
2022-12-11T21:55:55.507Z,30.77
2022-12-11T21:58:25.023Z,32.83
2022-12-11T22:00:53.078Z,31.87
2022-12-11T22:03:21.204Z,31.40
2022-12-11T22:05:49.560Z,30.73
2022-12-11T22:08:23.603Z,29.07
2022-12-11T22:10:51.750Z,30.47
2022-12-11T22:13:19.756Z,28.67
2022-12-11T22:15:49.107Z,32.20
2022-12-11T22:18:17.184Z,31.97
2022-12-11T22:20:45.797Z,32.20
2022-12-11T22:23:14.128Z,37.63
2022-12-11T22:25:48.987Z,32.07
2022-12-11T22:28:17.288Z,33.40
2022-12-11T22:30:47.257Z,28.63
2022-12-11T22:33:16.924Z,33.67
2022-12-11T22:35:45.188Z,28.67
2022-12-11T22:38:13.195Z,31.47
2022-12-11T22:40:42.351Z,29.57
2022-12-11T22:43:10.325Z,29.23
2022-12-11T22:45:40.605Z,25.43
2022-12-11T22:48:09.623Z,28.43
2022-12-11T22:50:40.800Z,27.37
2022-12-11T22:53:08.824Z,28.50
2022-12-11T22:55:39.702Z,29.67
2022-12-11T22:58:07.794Z,36.57
2022-12-11T23:00:40.342Z,30.37
2022-12-11T23:03:08.602Z,29.87
2022-12-11T23:05:44.099Z,29.97
2022-12-11T23:08:12.303Z,27.20
2022-12-11T23:10:42.889Z,29.87
2022-12-11T23:13:11.165Z,34.40
2022-12-11T23:15:39.344Z,32.70
2022-12-11T23:18:07.399Z,25.77
2022-12-11T23:20:35.607Z,28.27
2022-12-11T23:23:05.141Z,32.17
2022-12-11T23:25:33.135Z,31.53
2022-12-11T23:28:01.257Z,32.70
2022-12-11T23:30:32.196Z,26.97
2022-12-11T23:33:00.207Z,26.93
2022-12-11T23:35:29.080Z,26.90
2022-12-11T23:37:57.354Z,30.03
2022-12-11T23:40:26.712Z,32.90
2022-12-11T23:42:54.708Z,28.20
2022-12-11T23:45:22.769Z,30.30
2022-12-11T23:47:50.922Z,28.70
2022-12-11T23:50:19.033Z,32.30
2022-12-11T23:52:47.275Z,26.90
2022-12-11T23:55:15.339Z,32.10
2022-12-11T23:57:44.694Z,31.13
